sensor_id;sensor_type;location;lat;lon;timestamp;P1;durP1;ratioP1;P2;durP2;ratioP2
55575;SDS011;41437;45.478;9.116;2022-07-06T00:02:03;4.38;;;2.50;;
55575;SDS011;41437;45.478;9.116;2022-07-06T00:06:04;5.85;;;2.10;;
55575;SDS011;41437;45.478;9.116;2022-07-06T00:10:07;5.38;;;2.70;;
55575;SDS011;41437;45.478;9.116;2022-07-06T00:14:09;4.95;;;2.67;;
55575;SDS011;41437;45.478;9.116;2022-07-06T00:18:10;5.03;;;2.58;;
55575;SDS011;41437;45.478;9.116;2022-07-06T00:22:12;4.88;;;2.40;;
55575;SDS011;41437;45.478;9.116;2022-07-06T00:26:15;4.50;;;2.60;;
55575;SDS011;41437;45.478;9.116;2022-07-06T00:30:16;6.07;;;2.65;;
55575;SDS011;41437;45.478;9.116;2022-07-06T00:34:21;6.65;;;2.40;;
55575;SDS011;41437;45.478;9.116;2022-07-06T00:38:22;4.57;;;2.20;;
55575;SDS011;41437;45.478;9.116;2022-07-06T00:42:26;5.88;;;2.40;;
55575;SDS011;41437;45.478;9.116;2022-07-06T00:46:28;4.47;;;2.30;;
55575;SDS011;41437;45.478;9.116;2022-07-06T00:50:32;4.25;;;2.35;;
55575;SDS011;41437;45.478;9.116;2022-07-06T00:54:34;4.25;;;2.30;;
55575;SDS011;41437;45.478;9.116;2022-07-06T00:58:38;4.85;;;2.10;;
55575;SDS011;41437;45.478;9.116;2022-07-06T01:02:40;4.03;;;2.20;;
55575;SDS011;41437;45.478;9.116;2022-07-06T01:06:41;4.35;;;2.20;;
55575;SDS011;41437;45.478;9.116;2022-07-06T01:10:44;4.70;;;2.30;;
55575;SDS011;41437;45.478;9.116;2022-07-06T01:14:47;5.53;;;2.28;;
55575;SDS011;41437;45.478;9.116;2022-07-06T01:18:48;5.68;;;2.30;;
55575;SDS011;41437;45.478;9.116;2022-07-06T01:22:53;4.45;;;2.10;;
55575;SDS011;41437;45.478;9.116;2022-07-06T01:26:55;4.38;;;2.17;;
55575;SDS011;41437;45.478;9.116;2022-07-06T01:30:57;5.57;;;2.30;;
55575;SDS011;41437;45.478;9.116;2022-07-06T01:34:58;5.28;;;2.22;;
55575;SDS011;41437;45.478;9.116;2022-07-06T01:39:01;3.88;;;2.10;;
55575;SDS011;41437;45.478;9.116;2022-07-06T01:43:03;3.75;;;2.00;;
55575;SDS011;41437;45.478;9.116;2022-07-06T01:47:04;3.55;;;2.00;;
55575;SDS011;41437;45.478;9.116;2022-07-06T01:51:05;4.47;;;2.00;;
55575;SDS011;41437;45.478;9.116;2022-07-06T01:55:11;4.03;;;2.10;;
55575;SDS011;41437;45.478;9.116;2022-07-06T01:59:12;3.80;;;2.00;;
55575;SDS011;41437;45.478;9.116;2022-07-06T02:03:14;4.30;;;2.00;;
55575;SDS011;41437;45.478;9.116;2022-07-06T02:07:15;3.95;;;1.90;;
55575;SDS011;41437;45.478;9.116;2022-07-06T02:11:18;4.00;;;2.20;;
55575;SDS011;41437;45.478;9.116;2022-07-06T02:15:20;3.13;;;1.90;;
55575;SDS011;41437;45.478;9.116;2022-07-06T02:19:21;3.13;;;1.90;;
55575;SDS011;41437;45.478;9.116;2022-07-06T02:23:23;4.20;;;2.08;;
55575;SDS011;41437;45.478;9.116;2022-07-06T02:27:27;4.33;;;1.97;;
55575;SDS011;41437;45.478;9.116;2022-07-06T02:31:28;3.38;;;1.80;;
55575;SDS011;41437;45.478;9.116;2022-07-06T02:35:30;3.05;;;1.70;;
55575;SDS011;41437;45.478;9.116;2022-07-06T02:39:31;3.38;;;2.00;;
55575;SDS011;41437;45.478;9.116;2022-07-06T02:43:34;3.40;;;1.90;;
55575;SDS011;41437;45.478;9.116;2022-07-06T02:47:37;3.15;;;1.70;;
55575;SDS011;41437;45.478;9.116;2022-07-06T02:51:41;3.47;;;1.80;;
55575;SDS011;41437;45.478;9.116;2022-07-06T02:55:45;4.10;;;1.85;;
55575;SDS011;41437;45.478;9.116;2022-07-06T02:59:48;3.83;;;1.90;;
55575;SDS011;41437;45.478;9.116;2022-07-06T03:03:50;3.28;;;1.70;;
55575;SDS011;41437;45.478;9.116;2022-07-06T03:07:51;4.93;;;1.80;;
55575;SDS011;41437;45.478;9.116;2022-07-06T03:11:53;4.03;;;1.80;;
55575;SDS011;41437;45.478;9.116;2022-07-06T03:15:56;3.85;;;1.60;;
55575;SDS011;41437;45.478;9.116;2022-07-06T03:19:57;2.90;;;1.63;;
55575;SDS011;41437;45.478;9.116;2022-07-06T03:24:00;2.83;;;1.70;;
55575;SDS011;41437;45.478;9.116;2022-07-06T03:28:01;3.28;;;1.67;;
55575;SDS011;41437;45.478;9.116;2022-07-06T03:32:05;3.60;;;1.80;;
55575;SDS011;41437;45.478;9.116;2022-07-06T03:36:06;3.75;;;1.70;;
55575;SDS011;41437;45.478;9.116;2022-07-06T03:40:08;3.13;;;1.70;;
55575;SDS011;41437;45.478;9.116;2022-07-06T03:44:13;3.38;;;1.50;;
55575;SDS011;41437;45.478;9.116;2022-07-06T03:48:16;2.92;;;1.55;;
55575;SDS011;41437;45.478;9.116;2022-07-06T03:52:18;3.25;;;1.70;;
55575;SDS011;41437;45.478;9.116;2022-07-06T03:56:19;3.83;;;1.60;;
55575;SDS011;41437;45.478;9.116;2022-07-06T04:00:29;2.60;;;1.50;;
55575;SDS011;41437;45.478;9.116;2022-07-06T04:04:32;3.50;;;1.65;;
55575;SDS011;41437;45.478;9.116;2022-07-06T04:08:34;2.90;;;1.40;;
55575;SDS011;41437;45.478;9.116;2022-07-06T04:12:44;3.80;;;1.60;;
55575;SDS011;41437;45.478;9.116;2022-07-06T04:16:46;3.03;;;1.50;;
55575;SDS011;41437;45.478;9.116;2022-07-06T04:20:49;2.25;;;1.30;;
55575;SDS011;41437;45.478;9.116;2022-07-06T04:24:50;2.90;;;1.48;;
55575;SDS011;41437;45.478;9.116;2022-07-06T04:28:52;3.05;;;1.70;;
55575;SDS011;41437;45.478;9.116;2022-07-06T04:32:53;3.65;;;1.60;;
55575;SDS011;41437;45.478;9.116;2022-07-06T04:36:57;2.85;;;1.42;;
55575;SDS011;41437;45.478;9.116;2022-07-06T04:40:59;2.90;;;1.60;;
55575;SDS011;41437;45.478;9.116;2022-07-06T04:45:03;4.05;;;1.50;;
55575;SDS011;41437;45.478;9.116;2022-07-06T04:49:05;3.30;;;1.42;;
55575;SDS011;41437;45.478;9.116;2022-07-06T04:53:08;3.35;;;1.67;;
55575;SDS011;41437;45.478;9.116;2022-07-06T04:57:09;3.20;;;1.40;;
55575;SDS011;41437;45.478;9.116;2022-07-06T05:01:11;2.65;;;1.48;;
55575;SDS011;41437;45.478;9.116;2022-07-06T05:05:14;2.22;;;1.30;;
55575;SDS011;41437;45.478;9.116;2022-07-06T05:09:19;3.60;;;1.40;;
55575;SDS011;41437;45.478;9.116;2022-07-06T05:13:21;2.95;;;1.40;;
55575;SDS011;41437;45.478;9.116;2022-07-06T05:17:22;2.78;;;1.30;;
55575;SDS011;41437;45.478;9.116;2022-07-06T05:21:24;2.80;;;1.30;;
55575;SDS011;41437;45.478;9.116;2022-07-06T05:25:27;2.85;;;1.35;;
55575;SDS011;41437;45.478;9.116;2022-07-06T05:29:28;3.75;;;1.30;;
55575;SDS011;41437;45.478;9.116;2022-07-06T05:33:30;2.63;;;1.40;;
55575;SDS011;41437;45.478;9.116;2022-07-06T05:37:31;3.03;;;1.38;;
55575;SDS011;41437;45.478;9.116;2022-07-06T05:41:34;2.88;;;1.35;;
55575;SDS011;41437;45.478;9.116;2022-07-06T05:45:35;3.28;;;1.42;;
55575;SDS011;41437;45.478;9.116;2022-07-06T05:49:37;3.03;;;1.35;;
55575;SDS011;41437;45.478;9.116;2022-07-06T05:53:56;3.50;;;1.20;;
55575;SDS011;41437;45.478;9.116;2022-07-06T05:57:59;2.85;;;1.40;;
55575;SDS011;41437;45.478;9.116;2022-07-06T06:02:00;2.05;;;1.20;;
55575;SDS011;41437;45.478;9.116;2022-07-06T06:06:02;3.33;;;1.40;;
55575;SDS011;41437;45.478;9.116;2022-07-06T06:10:03;3.92;;;1.40;;
55575;SDS011;41437;45.478;9.116;2022-07-06T06:14:09;2.60;;;1.30;;
55575;SDS011;41437;45.478;9.116;2022-07-06T06:18:10;3.08;;;1.30;;
55575;SDS011;41437;45.478;9.116;2022-07-06T06:22:15;2.53;;;1.33;;
55575;SDS011;41437;45.478;9.116;2022-07-06T06:30:19;2.85;;;1.38;;
55575;SDS011;41437;45.478;9.116;2022-07-06T06:34:23;2.65;;;1.38;;
55575;SDS011;41437;45.478;9.116;2022-07-06T06:38:24;2.85;;;1.50;;
55575;SDS011;41437;45.478;9.116;2022-07-06T06:42:27;2.75;;;1.10;;
55575;SDS011;41437;45.478;9.116;2022-07-06T06:46:30;2.75;;;1.30;;
55575;SDS011;41437;45.478;9.116;2022-07-06T06:50:31;2.90;;;1.20;;
55575;SDS011;41437;45.478;9.116;2022-07-06T06:54:33;2.70;;;1.30;;
55575;SDS011;41437;45.478;9.116;2022-07-06T06:58:34;2.75;;;1.45;;
55575;SDS011;41437;45.478;9.116;2022-07-06T07:02:37;2.13;;;1.20;;
55575;SDS011;41437;45.478;9.116;2022-07-06T07:06:39;2.90;;;1.30;;
55575;SDS011;41437;45.478;9.116;2022-07-06T07:10:40;2.28;;;1.20;;
55575;SDS011;41437;45.478;9.116;2022-07-06T07:14:42;2.38;;;1.25;;
55575;SDS011;41437;45.478;9.116;2022-07-06T07:18:44;3.30;;;1.35;;
55575;SDS011;41437;45.478;9.116;2022-07-06T07:22:46;4.90;;;1.52;;
55575;SDS011;41437;45.478;9.116;2022-07-06T07:26:47;3.08;;;1.33;;
55575;SDS011;41437;45.478;9.116;2022-07-06T07:30:49;3.25;;;1.50;;
55575;SDS011;41437;45.478;9.116;2022-07-06T07:34:52;2.95;;;1.45;;
55575;SDS011;41437;45.478;9.116;2022-07-06T07:38:53;2.83;;;1.45;;
55575;SDS011;41437;45.478;9.116;2022-07-06T07:42:55;2.47;;;1.38;;
55575;SDS011;41437;45.478;9.116;2022-07-06T07:46:56;2.38;;;1.20;;
55575;SDS011;41437;45.478;9.116;2022-07-06T07:50:59;3.55;;;1.40;;
55575;SDS011;41437;45.478;9.116;2022-07-06T07:55:00;2.80;;;1.48;;
55575;SDS011;41437;45.478;9.116;2022-07-06T07:59:01;2.05;;;1.20;;
55575;SDS011;41437;45.478;9.116;2022-07-06T08:03:03;2.85;;;1.30;;
55575;SDS011;41437;45.478;9.116;2022-07-06T08:07:09;2.80;;;1.38;;
55575;SDS011;41437;45.478;9.116;2022-07-06T08:11:12;3.33;;;1.50;;
55575;SDS011;41437;45.478;9.116;2022-07-06T08:14:58;3.28;;;1.35;;
55575;SDS011;41437;45.478;9.116;2022-07-06T08:18:00;3.67;;;1.50;;
55575;SDS011;41437;45.478;9.116;2022-07-06T08:21:04;2.90;;;1.40;;
55575;SDS011;41437;45.478;9.116;2022-07-06T08:24:07;2.70;;;1.40;;
55575;SDS011;41437;45.478;9.116;2022-07-06T08:27:09;2.83;;;1.50;;
55575;SDS011;41437;45.478;9.116;2022-07-06T08:30:12;3.20;;;1.60;;
55575;SDS011;41437;45.478;9.116;2022-07-06T08:33:14;2.53;;;1.50;;
55575;SDS011;41437;45.478;9.116;2022-07-06T08:36:16;3.40;;;1.50;;
55575;SDS011;41437;45.478;9.116;2022-07-06T08:39:18;3.30;;;1.50;;
55575;SDS011;41437;45.478;9.116;2022-07-06T08:42:19;3.22;;;1.50;;
55575;SDS011;41437;45.478;9.116;2022-07-06T08:45:24;4.05;;;1.65;;
55575;SDS011;41437;45.478;9.116;2022-07-06T08:48:27;3.00;;;1.58;;
55575;SDS011;41437;45.478;9.116;2022-07-06T08:51:32;2.92;;;1.50;;
55575;SDS011;41437;45.478;9.116;2022-07-06T08:54:37;3.03;;;1.50;;
55575;SDS011;41437;45.478;9.116;2022-07-06T08:57:39;2.88;;;1.50;;
55575;SDS011;41437;45.478;9.116;2022-07-06T09:00:42;2.80;;;1.50;;
55575;SDS011;41437;45.478;9.116;2022-07-06T09:03:45;2.75;;;1.27;;
55575;SDS011;41437;45.478;9.116;2022-07-06T09:06:48;2.58;;;1.38;;
55575;SDS011;41437;45.478;9.116;2022-07-06T09:09:51;2.95;;;1.30;;
55575;SDS011;41437;45.478;9.116;2022-07-06T09:13:03;2.33;;;1.38;;
55575;SDS011;41437;45.478;9.116;2022-07-06T09:16:10;2.45;;;1.30;;
55575;SDS011;41437;45.478;9.116;2022-07-06T09:19:13;3.22;;;1.40;;
55575;SDS011;41437;45.478;9.116;2022-07-06T09:22:24;2.80;;;1.70;;
55575;SDS011;41437;45.478;9.116;2022-07-06T09:25:27;2.85;;;1.38;;
55575;SDS011;41437;45.478;9.116;2022-07-06T09:28:40;3.17;;;1.43;;
55575;SDS011;41437;45.478;9.116;2022-07-06T09:31:43;3.97;;;1.40;;
55575;SDS011;41437;45.478;9.116;2022-07-06T09:34:57;2.80;;;1.38;;
55575;SDS011;41437;45.478;9.116;2022-07-06T09:38:02;2.78;;;1.40;;
55575;SDS011;41437;45.478;9.116;2022-07-06T09:41:05;3.10;;;1.30;;
55575;SDS011;41437;45.478;9.116;2022-07-06T09:44:06;2.95;;;1.45;;
55575;SDS011;41437;45.478;9.116;2022-07-06T09:47:10;3.25;;;1.33;;
55575;SDS011;41437;45.478;9.116;2022-07-06T09:50:15;2.92;;;1.60;;
55575;SDS011;41437;45.478;9.116;2022-07-06T09:53:17;3.22;;;1.55;;
55575;SDS011;41437;45.478;9.116;2022-07-06T09:56:20;3.45;;;1.67;;
55575;SDS011;41437;45.478;9.116;2022-07-06T09:59:23;2.80;;;1.50;;
55575;SDS011;41437;45.478;9.116;2022-07-06T10:02:29;2.95;;;1.48;;
55575;SDS011;41437;45.478;9.116;2022-07-06T10:05:31;2.90;;;1.55;;
55575;SDS011;41437;45.478;9.116;2022-07-06T10:08:34;2.80;;;1.50;;
55575;SDS011;41437;45.478;9.116;2022-07-06T10:11:37;2.80;;;1.50;;
55575;SDS011;41437;45.478;9.116;2022-07-06T10:14:41;3.30;;;1.70;;
55575;SDS011;41437;45.478;9.116;2022-07-06T10:17:45;3.05;;;1.60;;
55575;SDS011;41437;45.478;9.116;2022-07-06T10:20:48;3.38;;;1.58;;
55575;SDS011;41437;45.478;9.116;2022-07-06T10:23:50;2.70;;;1.40;;
55575;SDS011;41437;45.478;9.116;2022-07-06T10:29:55;2.90;;;1.50;;
55575;SDS011;41437;45.478;9.116;2022-07-06T10:32:59;3.40;;;1.50;;
55575;SDS011;41437;45.478;9.116;2022-07-06T10:36:01;2.72;;;1.48;;
55575;SDS011;41437;45.478;9.116;2022-07-06T10:39:05;2.67;;;1.40;;
55575;SDS011;41437;45.478;9.116;2022-07-06T10:42:43;4.60;;;1.70;;
55575;SDS011;41437;45.478;9.116;2022-07-06T10:45:49;2.65;;;1.65;;
55575;SDS011;41437;45.478;9.116;2022-07-06T10:48:57;2.88;;;1.50;;
55575;SDS011;41437;45.478;9.116;2022-07-06T10:52:02;3.17;;;1.55;;
55575;SDS011;41437;45.478;9.116;2022-07-06T10:55:06;4.03;;;1.60;;
55575;SDS011;41437;45.478;9.116;2022-07-06T10:58:11;3.88;;;1.60;;
55575;SDS011;41437;45.478;9.116;2022-07-06T11:01:13;3.78;;;1.65;;
55575;SDS011;41437;45.478;9.116;2022-07-06T11:04:18;2.63;;;1.50;;
55575;SDS011;41437;45.478;9.116;2022-07-06T11:07:38;3.53;;;1.65;;
55575;SDS011;41437;45.478;9.116;2022-07-06T11:10:57;2.72;;;1.45;;
55575;SDS011;41437;45.478;9.116;2022-07-06T11:14:12;2.88;;;1.50;;
55575;SDS011;41437;45.478;9.116;2022-07-06T11:17:20;3.58;;;1.77;;
55575;SDS011;41437;45.478;9.116;2022-07-06T11:20:23;2.67;;;1.60;;
55575;SDS011;41437;45.478;9.116;2022-07-06T11:26:27;2.78;;;1.55;;
55575;SDS011;41437;45.478;9.116;2022-07-06T11:29:29;4.13;;;1.90;;
55575;SDS011;41437;45.478;9.116;2022-07-06T11:32:31;3.85;;;1.70;;
55575;SDS011;41437;45.478;9.116;2022-07-06T11:35:34;3.42;;;1.80;;
55575;SDS011;41437;45.478;9.116;2022-07-06T11:38:36;2.88;;;1.42;;
55575;SDS011;41437;45.478;9.116;2022-07-06T11:41:37;2.50;;;1.42;;
55575;SDS011;41437;45.478;9.116;2022-07-06T11:44:39;4.32;;;1.60;;
55575;SDS011;41437;45.478;9.116;2022-07-06T11:47:42;3.40;;;1.60;;
55575;SDS011;41437;45.478;9.116;2022-07-06T11:50:45;3.25;;;1.70;;
55575;SDS011;41437;45.478;9.116;2022-07-06T11:53:59;3.13;;;1.70;;
55575;SDS011;41437;45.478;9.116;2022-07-06T11:57:02;2.70;;;1.65;;
55575;SDS011;41437;45.478;9.116;2022-07-06T12:00:05;2.85;;;1.67;;
55575;SDS011;41437;45.478;9.116;2022-07-06T12:03:07;2.97;;;1.77;;
55575;SDS011;41437;45.478;9.116;2022-07-06T12:06:14;3.67;;;1.50;;
55575;SDS011;41437;45.478;9.116;2022-07-06T12:09:20;4.13;;;1.70;;
55575;SDS011;41437;45.478;9.116;2022-07-06T12:12:22;3.07;;;1.53;;
55575;SDS011;41437;45.478;9.116;2022-07-06T12:15:26;4.80;;;1.90;;
55575;SDS011;41437;45.478;9.116;2022-07-06T12:21:43;3.80;;;1.77;;
55575;SDS011;41437;45.478;9.116;2022-07-06T12:24:46;3.22;;;1.65;;
55575;SDS011;41437;45.478;9.116;2022-07-06T12:27:48;2.53;;;1.63;;
55575;SDS011;41437;45.478;9.116;2022-07-06T12:30:49;3.40;;;2.00;;
55575;SDS011;41437;45.478;9.116;2022-07-06T12:33:55;3.10;;;1.80;;
55575;SDS011;41437;45.478;9.116;2022-07-06T12:36:59;3.05;;;1.58;;
55575;SDS011;41437;45.478;9.116;2022-07-06T12:40:11;3.65;;;1.60;;
55575;SDS011;41437;45.478;9.116;2022-07-06T12:43:18;2.90;;;1.45;;
55575;SDS011;41437;45.478;9.116;2022-07-06T12:46:36;2.90;;;1.70;;
55575;SDS011;41437;45.478;9.116;2022-07-06T12:49:39;2.55;;;1.50;;
55575;SDS011;41437;45.478;9.116;2022-07-06T12:52:44;3.53;;;1.60;;
55575;SDS011;41437;45.478;9.116;2022-07-06T12:55:45;2.60;;;1.63;;
55575;SDS011;41437;45.478;9.116;2022-07-06T12:58:55;3.58;;;1.75;;
55575;SDS011;41437;45.478;9.116;2022-07-06T13:01:57;2.92;;;1.70;;
55575;SDS011;41437;45.478;9.116;2022-07-06T13:05:00;3.60;;;1.85;;
55575;SDS011;41437;45.478;9.116;2022-07-06T13:08:05;2.58;;;1.50;;
55575;SDS011;41437;45.478;9.116;2022-07-06T13:11:08;2.72;;;1.60;;
55575;SDS011;41437;45.478;9.116;2022-07-06T13:14:10;2.97;;;1.67;;
55575;SDS011;41437;45.478;9.116;2022-07-06T13:17:12;3.22;;;1.67;;
55575;SDS011;41437;45.478;9.116;2022-07-06T13:20:14;3.15;;;1.70;;
55575;SDS011;41437;45.478;9.116;2022-07-06T13:23:18;2.58;;;1.55;;
55575;SDS011;41437;45.478;9.116;2022-07-06T13:26:20;2.72;;;1.48;;
55575;SDS011;41437;45.478;9.116;2022-07-06T13:29:22;2.88;;;1.55;;
55575;SDS011;41437;45.478;9.116;2022-07-06T13:32:25;2.42;;;1.35;;
55575;SDS011;41437;45.478;9.116;2022-07-06T13:35:28;3.70;;;1.70;;
55575;SDS011;41437;45.478;9.116;2022-07-06T13:38:34;3.97;;;1.60;;
55575;SDS011;41437;45.478;9.116;2022-07-06T13:41:36;3.05;;;1.70;;
55575;SDS011;41437;45.478;9.116;2022-07-06T13:44:37;3.22;;;1.70;;
55575;SDS011;41437;45.478;9.116;2022-07-06T13:47:41;3.42;;;1.45;;
55575;SDS011;41437;45.478;9.116;2022-07-06T13:50:43;2.92;;;1.40;;
55575;SDS011;41437;45.478;9.116;2022-07-06T13:53:46;3.05;;;1.42;;
55575;SDS011;41437;45.478;9.116;2022-07-06T13:56:51;3.40;;;1.60;;
55575;SDS011;41437;45.478;9.116;2022-07-06T13:59:52;2.83;;;1.42;;
55575;SDS011;41437;45.478;9.116;2022-07-06T14:02:54;4.70;;;1.60;;
55575;SDS011;41437;45.478;9.116;2022-07-06T14:05:56;3.35;;;1.40;;
55575;SDS011;41437;45.478;9.116;2022-07-06T14:09:00;2.88;;;1.40;;
55575;SDS011;41437;45.478;9.116;2022-07-06T14:12:02;2.78;;;1.40;;
55575;SDS011;41437;45.478;9.116;2022-07-06T14:15:04;2.55;;;1.40;;
55575;SDS011;41437;45.478;9.116;2022-07-06T14:21:10;2.95;;;1.50;;
55575;SDS011;41437;45.478;9.116;2022-07-06T14:24:15;3.53;;;1.40;;
55575;SDS011;41437;45.478;9.116;2022-07-06T14:27:17;2.30;;;1.40;;
55575;SDS011;41437;45.478;9.116;2022-07-06T14:30:18;3.30;;;1.30;;
55575;SDS011;41437;45.478;9.116;2022-07-06T14:33:20;2.57;;;1.30;;
55575;SDS011;41437;45.478;9.116;2022-07-06T14:36:22;1.95;;;1.30;;
55575;SDS011;41437;45.478;9.116;2022-07-06T14:39:25;2.92;;;1.48;;
55575;SDS011;41437;45.478;9.116;2022-07-06T14:42:30;3.45;;;1.40;;
55575;SDS011;41437;45.478;9.116;2022-07-06T14:45:32;4.97;;;1.50;;
55575;SDS011;41437;45.478;9.116;2022-07-06T14:48:33;2.10;;;1.25;;
55575;SDS011;41437;45.478;9.116;2022-07-06T14:51:35;2.22;;;1.20;;
55575;SDS011;41437;45.478;9.116;2022-07-06T14:54:38;2.17;;;1.20;;
55575;SDS011;41437;45.478;9.116;2022-07-06T14:57:40;2.17;;;1.30;;
55575;SDS011;41437;45.478;9.116;2022-07-06T15:00:43;4.05;;;1.52;;
55575;SDS011;41437;45.478;9.116;2022-07-06T15:03:45;2.20;;;1.38;;
55575;SDS011;41437;45.478;9.116;2022-07-06T15:06:47;4.80;;;1.52;;
55575;SDS011;41437;45.478;9.116;2022-07-06T15:09:50;3.22;;;1.30;;
55575;SDS011;41437;45.478;9.116;2022-07-06T15:12:52;2.25;;;1.20;;
55575;SDS011;41437;45.478;9.116;2022-07-06T15:15:56;4.35;;;1.45;;
55575;SDS011;41437;45.478;9.116;2022-07-06T15:19:00;1.88;;;1.20;;
55575;SDS011;41437;45.478;9.116;2022-07-06T15:22:02;2.33;;;1.30;;
55575;SDS011;41437;45.478;9.116;2022-07-06T15:25:06;2.35;;;1.30;;
55575;SDS011;41437;45.478;9.116;2022-07-06T15:28:11;2.38;;;1.30;;
55575;SDS011;41437;45.478;9.116;2022-07-06T15:34:15;3.35;;;1.30;;
55575;SDS011;41437;45.478;9.116;2022-07-06T15:37:19;3.17;;;1.40;;
55575;SDS011;41437;45.478;9.116;2022-07-06T15:40:22;2.80;;;1.30;;
55575;SDS011;41437;45.478;9.116;2022-07-06T15:43:25;2.30;;;1.20;;
55575;SDS011;41437;45.478;9.116;2022-07-06T15:46:29;2.38;;;1.30;;
55575;SDS011;41437;45.478;9.116;2022-07-06T15:49:30;2.92;;;1.30;;
55575;SDS011;41437;45.478;9.116;2022-07-06T15:52:32;3.60;;;1.50;;
55575;SDS011;41437;45.478;9.116;2022-07-06T15:55:35;3.42;;;1.40;;
55575;SDS011;41437;45.478;9.116;2022-07-06T15:58:37;2.10;;;1.27;;
55575;SDS011;41437;45.478;9.116;2022-07-06T16:01:39;2.90;;;1.43;;
55575;SDS011;41437;45.478;9.116;2022-07-06T16:04:44;2.97;;;1.45;;
55575;SDS011;41437;45.478;9.116;2022-07-06T16:07:47;3.10;;;1.30;;
55575;SDS011;41437;45.478;9.116;2022-07-06T16:10:50;2.40;;;1.30;;
55575;SDS011;41437;45.478;9.116;2022-07-06T16:13:52;2.92;;;1.40;;
55575;SDS011;41437;45.478;9.116;2022-07-06T16:16:54;2.50;;;1.40;;
55575;SDS011;41437;45.478;9.116;2022-07-06T16:19:55;3.00;;;1.30;;
55575;SDS011;41437;45.478;9.116;2022-07-06T16:22:57;2.92;;;1.50;;
55575;SDS011;41437;45.478;9.116;2022-07-06T16:26:01;2.72;;;1.33;;
55575;SDS011;41437;45.478;9.116;2022-07-06T16:29:03;2.20;;;1.30;;
55575;SDS011;41437;45.478;9.116;2022-07-06T16:32:05;3.05;;;1.48;;
55575;SDS011;41437;45.478;9.116;2022-07-06T16:35:10;2.90;;;1.33;;
55575;SDS011;41437;45.478;9.116;2022-07-06T16:38:11;2.70;;;1.38;;
55575;SDS011;41437;45.478;9.116;2022-07-06T16:41:14;2.63;;;1.30;;
55575;SDS011;41437;45.478;9.116;2022-07-06T16:44:16;2.05;;;1.23;;
55575;SDS011;41437;45.478;9.116;2022-07-06T16:47:18;2.60;;;1.50;;
55575;SDS011;41437;45.478;9.116;2022-07-06T16:50:20;2.50;;;1.27;;
55575;SDS011;41437;45.478;9.116;2022-07-06T16:53:23;2.53;;;1.50;;
55575;SDS011;41437;45.478;9.116;2022-07-06T16:56:26;2.35;;;1.20;;
55575;SDS011;41437;45.478;9.116;2022-07-06T16:59:28;2.03;;;1.20;;
55575;SDS011;41437;45.478;9.116;2022-07-06T17:02:30;3.83;;;1.60;;
55575;SDS011;41437;45.478;9.116;2022-07-06T17:05:31;3.40;;;1.40;;
55575;SDS011;41437;45.478;9.116;2022-07-06T17:08:33;3.20;;;1.40;;
55575;SDS011;41437;45.478;9.116;2022-07-06T17:11:36;2.53;;;1.30;;
55575;SDS011;41437;45.478;9.116;2022-07-06T17:14:38;3.13;;;1.50;;
55575;SDS011;41437;45.478;9.116;2022-07-06T17:17:40;2.30;;;1.38;;
55575;SDS011;41437;45.478;9.116;2022-07-06T17:20:42;2.88;;;1.30;;
55575;SDS011;41437;45.478;9.116;2022-07-06T17:23:43;2.70;;;1.40;;
55575;SDS011;41437;45.478;9.116;2022-07-06T17:26:47;3.33;;;1.30;;
55575;SDS011;41437;45.478;9.116;2022-07-06T17:29:48;2.60;;;1.52;;
55575;SDS011;41437;45.478;9.116;2022-07-06T17:32:52;2.30;;;1.38;;
55575;SDS011;41437;45.478;9.116;2022-07-06T17:35:53;2.33;;;1.45;;
55575;SDS011;41437;45.478;9.116;2022-07-06T17:38:55;2.23;;;1.23;;
55575;SDS011;41437;45.478;9.116;2022-07-06T17:41:59;2.38;;;1.40;;
55575;SDS011;41437;45.478;9.116;2022-07-06T17:45:01;3.08;;;1.35;;
55575;SDS011;41437;45.478;9.116;2022-07-06T17:48:03;2.80;;;1.45;;
55575;SDS011;41437;45.478;9.116;2022-07-06T17:51:06;3.28;;;1.40;;
55575;SDS011;41437;45.478;9.116;2022-07-06T17:54:07;2.63;;;1.40;;
55575;SDS011;41437;45.478;9.116;2022-07-06T17:57:13;2.57;;;1.43;;
55575;SDS011;41437;45.478;9.116;2022-07-06T18:00:14;2.15;;;1.15;;
55575;SDS011;41437;45.478;9.116;2022-07-06T18:03:19;3.00;;;1.45;;
55575;SDS011;41437;45.478;9.116;2022-07-06T18:06:21;2.28;;;1.23;;
55575;SDS011;41437;45.478;9.116;2022-07-06T18:09:23;2.10;;;1.30;;
55575;SDS011;41437;45.478;9.116;2022-07-06T18:12:26;2.33;;;1.40;;
55575;SDS011;41437;45.478;9.116;2022-07-06T18:15:27;2.67;;;1.30;;
55575;SDS011;41437;45.478;9.116;2022-07-06T18:18:29;1.98;;;1.35;;
55575;SDS011;41437;45.478;9.116;2022-07-06T18:21:31;2.53;;;1.40;;
55575;SDS011;41437;45.478;9.116;2022-07-06T18:24:33;3.10;;;1.40;;
55575;SDS011;41437;45.478;9.116;2022-07-06T18:27:36;2.33;;;1.30;;
55575;SDS011;41437;45.478;9.116;2022-07-06T18:30:40;2.83;;;1.35;;
55575;SDS011;41437;45.478;9.116;2022-07-06T18:33:41;2.30;;;1.20;;
55575;SDS011;41437;45.478;9.116;2022-07-06T18:36:43;2.63;;;1.48;;
55575;SDS011;41437;45.478;9.116;2022-07-06T18:39:45;2.60;;;1.40;;
55575;SDS011;41437;45.478;9.116;2022-07-06T18:42:48;2.73;;;1.43;;
55575;SDS011;41437;45.478;9.116;2022-07-06T18:45:50;2.53;;;1.40;;
55575;SDS011;41437;45.478;9.116;2022-07-06T18:48:54;2.03;;;1.10;;
55575;SDS011;41437;45.478;9.116;2022-07-06T18:51:57;3.23;;;1.47;;
55575;SDS011;41437;45.478;9.116;2022-07-06T18:54:59;2.92;;;1.40;;
55575;SDS011;41437;45.478;9.116;2022-07-06T18:58:05;2.25;;;1.30;;
55575;SDS011;41437;45.478;9.116;2022-07-06T19:01:06;2.38;;;1.40;;
55575;SDS011;41437;45.478;9.116;2022-07-06T19:04:08;2.97;;;1.40;;
55575;SDS011;41437;45.478;9.116;2022-07-06T19:07:10;2.28;;;1.30;;
55575;SDS011;41437;45.478;9.116;2022-07-06T19:10:12;3.10;;;1.52;;
55575;SDS011;41437;45.478;9.116;2022-07-06T19:13:16;2.60;;;1.40;;
55575;SDS011;41437;45.478;9.116;2022-07-06T19:16:18;1.90;;;1.20;;
55575;SDS011;41437;45.478;9.116;2022-07-06T19:19:23;3.30;;;1.63;;
55575;SDS011;41437;45.478;9.116;2022-07-06T19:22:25;3.15;;;1.50;;
55575;SDS011;41437;45.478;9.116;2022-07-06T19:25:27;2.65;;;1.30;;
55575;SDS011;41437;45.478;9.116;2022-07-06T19:28:43;3.40;;;1.58;;
55575;SDS011;41437;45.478;9.116;2022-07-06T19:31:46;3.10;;;1.40;;
55575;SDS011;41437;45.478;9.116;2022-07-06T19:35:04;2.35;;;1.30;;
55575;SDS011;41437;45.478;9.116;2022-07-06T19:38:13;2.45;;;1.50;;
55575;SDS011;41437;45.478;9.116;2022-07-06T19:41:28;2.90;;;1.48;;
55575;SDS011;41437;45.478;9.116;2022-07-06T19:44:32;2.38;;;1.33;;
55575;SDS011;41437;45.478;9.116;2022-07-06T19:47:36;2.42;;;1.42;;
55575;SDS011;41437;45.478;9.116;2022-07-06T19:50:38;2.67;;;1.40;;
55575;SDS011;41437;45.478;9.116;2022-07-06T19:53:40;2.35;;;1.30;;
55575;SDS011;41437;45.478;9.116;2022-07-06T19:56:47;3.25;;;1.60;;
55575;SDS011;41437;45.478;9.116;2022-07-06T19:59:51;2.80;;;1.50;;
55575;SDS011;41437;45.478;9.116;2022-07-06T20:02:53;3.00;;;1.35;;
55575;SDS011;41437;45.478;9.116;2022-07-06T20:05:55;3.95;;;1.50;;
55575;SDS011;41437;45.478;9.116;2022-07-06T20:08:57;3.20;;;1.52;;
55575;SDS011;41437;45.478;9.116;2022-07-06T20:12:02;2.90;;;1.50;;
55575;SDS011;41437;45.478;9.116;2022-07-06T20:15:09;2.90;;;1.40;;
55575;SDS011;41437;45.478;9.116;2022-07-06T20:18:11;2.97;;;1.50;;
55575;SDS011;41437;45.478;9.116;2022-07-06T20:21:33;2.20;;;1.30;;
55575;SDS011;41437;45.478;9.116;2022-07-06T20:24:36;3.13;;;1.60;;
55575;SDS011;41437;45.478;9.116;2022-07-06T20:27:38;2.83;;;1.30;;
55575;SDS011;41437;45.478;9.116;2022-07-06T20:30:41;2.85;;;1.40;;
55575;SDS011;41437;45.478;9.116;2022-07-06T20:33:44;2.78;;;1.50;;
55575;SDS011;41437;45.478;9.116;2022-07-06T20:36:46;2.75;;;1.52;;
55575;SDS011;41437;45.478;9.116;2022-07-06T20:39:47;3.53;;;1.60;;
55575;SDS011;41437;45.478;9.116;2022-07-06T20:42:50;3.33;;;1.60;;
55575;SDS011;41437;45.478;9.116;2022-07-06T20:45:55;2.60;;;1.40;;